createdAt,value
2018-12-31T00:01:42.925Z,5.80
2018-12-31T00:04:16.244Z,5.10
2018-12-31T00:06:46.752Z,4.77
2018-12-31T00:09:17.302Z,4.70
2018-12-31T00:11:47.883Z,4.80
2018-12-31T00:14:18.393Z,5.27
2018-12-31T00:16:48.964Z,4.00
2018-12-31T00:19:19.500Z,4.77
2018-12-31T00:21:50.072Z,4.53
2018-12-31T00:24:20.562Z,4.23
2018-12-31T00:26:51.081Z,4.97
2018-12-31T00:29:21.645Z,5.20
2018-12-31T00:31:52.200Z,5.10
2018-12-31T00:34:22.746Z,5.00
2018-12-31T00:36:53.251Z,5.00
2018-12-31T00:39:23.760Z,3.80
2018-12-31T00:41:54.313Z,4.43
2018-12-31T00:44:24.873Z,4.80
2018-12-31T00:46:55.396Z,4.03
2018-12-31T00:49:25.927Z,4.00
2018-12-31T00:51:56.465Z,3.80
2018-12-31T00:54:26.987Z,4.20
2018-12-31T00:56:57.498Z,4.23
2018-12-31T00:59:28.049Z,4.30
2018-12-31T01:01:58.577Z,3.73
2018-12-31T01:04:29.114Z,4.33
2018-12-31T01:06:59.605Z,4.20
2018-12-31T01:09:30.206Z,4.10
2018-12-31T01:12:00.736Z,4.13
2018-12-31T01:14:31.238Z,4.33
2018-12-31T01:17:01.740Z,3.53
2018-12-31T01:19:32.282Z,3.80
2018-12-31T01:22:02.826Z,4.43
2018-12-31T01:24:33.326Z,3.67
2018-12-31T01:27:06.150Z,3.80
2018-12-31T01:29:36.672Z,3.63
2018-12-31T01:32:07.207Z,4.17
2018-12-31T01:34:37.755Z,4.60
2018-12-31T01:37:08.283Z,3.97
2018-12-31T01:39:38.861Z,4.33
2018-12-31T01:42:09.390Z,4.20
2018-12-31T01:44:39.943Z,3.70
2018-12-31T01:47:10.520Z,3.57
2018-12-31T01:49:41.124Z,3.00
2018-12-31T01:52:11.662Z,3.60
2018-12-31T01:54:43.179Z,4.00
2018-12-31T01:57:14.763Z,3.67
2018-12-31T01:59:46.272Z,3.63
2018-12-31T02:02:16.779Z,3.47
2018-12-31T02:04:49.726Z,4.00
2018-12-31T02:07:20.275Z,3.60
2018-12-31T02:09:50.857Z,3.00
2018-12-31T02:12:21.380Z,3.27
2018-12-31T02:14:54.968Z,4.50
2018-12-31T02:17:28.238Z,4.03
2018-12-31T02:19:58.800Z,4.30
2018-12-31T02:22:29.450Z,4.97
2018-12-31T02:24:59.962Z,4.03
2018-12-31T02:27:31.224Z,3.63
2018-12-31T02:30:01.731Z,3.90
2018-12-31T02:32:35.928Z,3.93
2018-12-31T02:35:06.558Z,3.80
2018-12-31T02:37:37.063Z,3.10
2018-12-31T02:40:07.761Z,3.80
2018-12-31T02:42:38.302Z,4.00
2018-12-31T02:45:09.108Z,3.53
2018-12-31T02:47:39.700Z,3.40
2018-12-31T02:50:10.253Z,3.73
2018-12-31T02:52:40.773Z,3.90
2018-12-31T02:55:11.378Z,3.60
2018-12-31T02:57:41.912Z,3.30
2018-12-31T03:00:12.486Z,3.30
2018-12-31T03:02:43.006Z,3.63
2018-12-31T03:05:13.544Z,3.23
2018-12-31T03:07:44.103Z,3.87
2018-12-31T03:10:14.601Z,2.90
2018-12-31T03:12:45.141Z,4.17
2018-12-31T03:15:15.943Z,3.30
2018-12-31T03:17:47.095Z,4.23
2018-12-31T03:20:17.632Z,3.60
2018-12-31T03:22:48.213Z,3.60
2018-12-31T03:25:18.740Z,3.17
2018-12-31T03:27:49.241Z,3.33
2018-12-31T03:30:19.790Z,3.37
2018-12-31T03:32:50.358Z,3.37
2018-12-31T03:35:21.062Z,3.40
2018-12-31T03:37:52.182Z,3.27
2018-12-31T03:40:22.695Z,3.63
2018-12-31T03:42:53.247Z,3.70
2018-12-31T03:45:23.789Z,3.67
2018-12-31T03:47:56.398Z,3.23
2018-12-31T03:50:26.589Z,3.60
2018-12-31T03:52:57.131Z,3.40
2018-12-31T03:55:27.678Z,2.70
2018-12-31T03:57:58.210Z,2.57
2018-12-31T04:00:28.722Z,2.70
2018-12-31T04:02:59.322Z,2.40
2018-12-31T04:05:29.862Z,2.77
2018-12-31T04:08:00.456Z,2.90
2018-12-31T04:10:30.984Z,2.97
2018-12-31T04:13:02.140Z,2.50
2018-12-31T04:15:32.640Z,2.60
2018-12-31T04:18:03.149Z,2.90
2018-12-31T04:20:33.661Z,2.50
2018-12-31T04:23:04.230Z,2.17
2018-12-31T04:25:34.757Z,2.83
2018-12-31T04:28:05.274Z,2.43
2018-12-31T04:30:35.859Z,2.10
2018-12-31T04:33:06.391Z,2.87
2018-12-31T04:35:37.452Z,3.37
2018-12-31T04:38:09.440Z,4.00
2018-12-31T04:40:40.561Z,4.03
2018-12-31T04:43:11.134Z,4.10
2018-12-31T04:45:41.642Z,4.20
2018-12-31T04:48:14.210Z,3.60
2018-12-31T04:50:44.763Z,3.83
2018-12-31T04:53:15.297Z,3.50
2018-12-31T04:55:45.843Z,3.23
2018-12-31T04:58:23.003Z,3.37
2018-12-31T05:00:49.051Z,3.60
2018-12-31T05:03:21.831Z,2.87
2018-12-31T05:05:52.338Z,3.27
2018-12-31T05:08:23.602Z,3.13
2018-12-31T05:10:54.118Z,3.60
2018-12-31T05:13:24.592Z,3.60
2018-12-31T05:15:55.759Z,3.07
2018-12-31T05:18:26.491Z,3.50
2018-12-31T05:20:57.689Z,2.63
2018-12-31T05:23:28.256Z,3.23
2018-12-31T05:25:58.791Z,3.07
2018-12-31T05:28:29.267Z,2.67
2018-12-31T05:30:59.898Z,3.00
2018-12-31T05:33:30.502Z,3.07
2018-12-31T05:36:01.714Z,3.10
2018-12-31T05:38:32.356Z,3.20
2018-12-31T05:41:03.597Z,3.07
2018-12-31T05:43:34.134Z,3.60
2018-12-31T05:46:04.650Z,3.50
2018-12-31T05:48:35.220Z,3.00
2018-12-31T05:51:07.307Z,3.07
2018-12-31T05:53:37.861Z,3.50
2018-12-31T05:56:08.390Z,3.27
2018-12-31T05:58:38.941Z,2.83
2018-12-31T06:01:10.697Z,3.03
2018-12-31T06:03:41.259Z,3.00
2018-12-31T06:06:11.825Z,2.60
2018-12-31T06:08:42.371Z,2.73
2018-12-31T06:11:12.938Z,2.90
2018-12-31T06:13:43.467Z,3.80
2018-12-31T06:16:14.024Z,3.60
2018-12-31T06:18:44.597Z,3.73
2018-12-31T06:21:15.108Z,10.60
2018-12-31T06:23:48.092Z,7.50
2018-12-31T06:26:18.617Z,3.83
2018-12-31T06:28:49.183Z,3.10
2018-12-31T06:31:19.711Z,3.37
2018-12-31T06:33:51.764Z,3.63
2018-12-31T06:36:22.287Z,3.57
2018-12-31T06:38:52.791Z,4.70
2018-12-31T06:41:23.335Z,3.97
2018-12-31T06:43:53.856Z,4.73
2018-12-31T06:46:24.316Z,4.33
2018-12-31T06:48:54.874Z,4.77
2018-12-31T06:51:25.377Z,4.43
2018-12-31T06:53:55.929Z,4.83
2018-12-31T06:56:26.503Z,4.23
2018-12-31T06:58:56.986Z,4.40
2018-12-31T07:01:27.552Z,4.43
2018-12-31T07:03:58.031Z,4.87
2018-12-31T07:06:28.644Z,5.13
2018-12-31T07:08:59.265Z,3.73
2018-12-31T07:11:33.422Z,3.93
2018-12-31T07:14:06.308Z,3.77
2018-12-31T07:16:41.247Z,4.57
2018-12-31T07:19:11.914Z,4.40
2018-12-31T07:21:42.447Z,4.03
2018-12-31T07:24:15.775Z,3.80
2018-12-31T07:26:46.303Z,3.93
2018-12-31T07:29:17.864Z,3.93
2018-12-31T07:31:48.466Z,3.87
2018-12-31T07:34:19.083Z,4.17
2018-12-31T07:36:49.655Z,11.50
2018-12-31T07:39:20.174Z,5.87
2018-12-31T07:41:50.718Z,4.10
2018-12-31T07:44:24.280Z,4.93
2018-12-31T07:46:54.819Z,4.93
2018-12-31T07:49:28.195Z,4.60
2018-12-31T07:51:58.730Z,4.63
2018-12-31T07:54:29.241Z,4.13
2018-12-31T07:56:59.827Z,4.23
2018-12-31T07:59:31.779Z,4.20
2018-12-31T08:02:02.298Z,4.20
2018-12-31T08:04:32.872Z,4.33
2018-12-31T08:07:03.418Z,4.00
2018-12-31T08:09:34.014Z,7.10
2018-12-31T08:12:04.506Z,6.03
2018-12-31T08:14:35.047Z,4.90
2018-12-31T08:17:05.588Z,5.07
2018-12-31T08:19:36.120Z,4.80
2018-12-31T08:22:06.690Z,4.57
2018-12-31T08:24:37.219Z,6.10
2018-12-31T08:27:07.773Z,5.43
2018-12-31T08:29:38.285Z,5.40
2018-12-31T08:32:08.883Z,5.63
2018-12-31T08:34:39.423Z,6.83
2018-12-31T08:37:09.967Z,7.87
2018-12-31T08:39:40.724Z,6.93
2018-12-31T08:42:11.237Z,5.97
2018-12-31T08:44:41.837Z,5.27
2018-12-31T08:47:13.640Z,6.00
2018-12-31T08:49:44.100Z,5.57
2018-12-31T08:52:14.849Z,4.83
2018-12-31T08:54:45.311Z,5.10
2018-12-31T08:57:22.282Z,4.70
2018-12-31T08:59:52.816Z,4.50
2018-12-31T09:02:23.355Z,4.60
2018-12-31T09:04:53.900Z,5.80
2018-12-31T09:07:24.439Z,34.63
2018-12-31T09:09:55.030Z,7.33
2018-12-31T09:12:25.623Z,5.20
2018-12-31T09:14:56.188Z,4.63
2018-12-31T09:17:26.730Z,4.03
2018-12-31T09:19:57.287Z,3.80
2018-12-31T09:22:27.807Z,4.90
2018-12-31T09:25:02.435Z,3.97
2018-12-31T09:27:35.887Z,4.40
2018-12-31T09:30:06.742Z,4.83
2018-12-31T09:32:40.507Z,4.90
2018-12-31T09:35:11.007Z,4.20
2018-12-31T09:37:41.555Z,4.40
2018-12-31T09:40:12.145Z,4.03
2018-12-31T09:42:42.627Z,4.97
2018-12-31T09:45:13.201Z,4.80
2018-12-31T09:47:46.497Z,5.53
2018-12-31T09:50:17.007Z,4.93
2018-12-31T09:52:50.400Z,5.50
2018-12-31T09:55:20.986Z,5.20
2018-12-31T09:57:54.536Z,4.97
2018-12-31T10:00:25.033Z,6.10
2018-12-31T10:02:55.526Z,5.00
2018-12-31T10:05:26.079Z,5.40
2018-12-31T10:07:56.620Z,4.50
2018-12-31T10:10:29.531Z,5.53
2018-12-31T10:13:00.056Z,4.80
2018-12-31T10:15:32.503Z,4.93
2018-12-31T10:18:03.022Z,4.53
2018-12-31T10:20:33.559Z,4.30
2018-12-31T10:23:04.068Z,4.30
2018-12-31T10:25:34.624Z,5.10
2018-12-31T10:28:07.509Z,5.03
2018-12-31T10:30:39.272Z,4.97
2018-12-31T10:33:09.817Z,5.83
2018-12-31T10:35:40.359Z,5.10
2018-12-31T10:38:10.905Z,26.90
2018-12-31T10:40:41.409Z,6.20
2018-12-31T10:43:11.947Z,9.43
2018-12-31T10:45:42.472Z,5.83
2018-12-31T10:48:13.024Z,4.93
2018-12-31T10:50:43.589Z,5.10
2018-12-31T10:53:14.089Z,6.00
2018-12-31T10:55:53.657Z,4.50
2018-12-31T10:58:24.210Z,4.40
2018-12-31T11:00:57.217Z,5.80
2018-12-31T11:03:27.800Z,5.27
2018-12-31T11:05:58.289Z,4.73
2018-12-31T11:08:28.830Z,4.70
2018-12-31T11:10:59.414Z,4.50
2018-12-31T11:13:29.901Z,4.60
2018-12-31T11:16:01.773Z,4.63
2018-12-31T11:18:32.307Z,4.73
2018-12-31T11:21:02.842Z,4.47
2018-12-31T11:23:33.428Z,4.97
2018-12-31T11:26:04.041Z,4.80
2018-12-31T11:28:34.542Z,4.17
2018-12-31T11:31:05.103Z,3.43
2018-12-31T11:33:35.626Z,4.43
2018-12-31T11:36:08.997Z,4.47
2018-12-31T11:38:39.490Z,4.07
2018-12-31T11:41:10.041Z,4.70
2018-12-31T11:43:40.567Z,3.73
2018-12-31T11:46:11.131Z,4.10
2018-12-31T11:48:41.688Z,4.00
2018-12-31T11:51:12.360Z,4.30
2018-12-31T11:53:42.847Z,4.43
2018-12-31T11:56:14.429Z,4.03
2018-12-31T11:58:44.981Z,4.37
2018-12-31T12:01:17.341Z,4.17
2018-12-31T12:03:47.897Z,4.90
2018-12-31T12:06:18.470Z,4.20
2018-12-31T12:08:49.009Z,6.40
2018-12-31T12:11:19.631Z,7.97
2018-12-31T12:13:50.097Z,5.33
2018-12-31T12:16:20.697Z,6.47
2018-12-31T12:18:51.273Z,7.83
2018-12-31T12:21:21.811Z,7.87
2018-12-31T12:23:52.379Z,6.00
2018-12-31T12:26:22.860Z,6.37
2018-12-31T12:28:53.461Z,4.43
2018-12-31T12:31:24.368Z,5.90
2018-12-31T12:33:54.882Z,5.50
2018-12-31T12:36:25.394Z,5.47
2018-12-31T12:38:56.161Z,4.30
2018-12-31T12:41:26.645Z,4.27
2018-12-31T12:43:57.553Z,3.57
2018-12-31T12:46:28.088Z,3.47
2018-12-31T12:48:58.613Z,2.67
2018-12-31T12:51:29.104Z,2.67
2018-12-31T12:53:59.670Z,2.00
2018-12-31T12:56:30.193Z,1.87
2018-12-31T12:59:00.767Z,2.30
2018-12-31T13:01:32.566Z,1.80
2018-12-31T13:04:03.133Z,1.63
2018-12-31T13:06:33.877Z,1.83
2018-12-31T13:09:05.184Z,1.80
2018-12-31T13:11:35.764Z,1.70
2018-12-31T13:14:06.314Z,1.40
2018-12-31T13:16:37.118Z,1.57
2018-12-31T13:19:07.672Z,1.50
2018-12-31T13:21:38.232Z,1.40
2018-12-31T13:24:18.894Z,1.70
2018-12-31T13:26:53.107Z,1.20
2018-12-31T13:29:23.901Z,1.33
2018-12-31T13:31:54.461Z,1.40
2018-12-31T13:34:24.977Z,3.80
2018-12-31T13:36:55.501Z,4.97
2018-12-31T13:39:26.078Z,1.87
2018-12-31T13:41:57.982Z,1.43
2018-12-31T13:44:28.553Z,1.70
2018-12-31T13:46:59.086Z,1.50
2018-12-31T13:49:30.843Z,1.20
2018-12-31T13:52:01.496Z,1.40
2018-12-31T13:54:32.074Z,1.33
2018-12-31T13:57:02.612Z,1.50
2018-12-31T13:59:33.457Z,1.30
2018-12-31T14:02:03.991Z,1.40
2018-12-31T14:04:34.509Z,1.50
2018-12-31T14:07:05.083Z,1.00
2018-12-31T14:09:35.626Z,1.50
2018-12-31T14:12:06.191Z,1.37
2018-12-31T14:14:36.784Z,1.30
2018-12-31T14:17:07.374Z,1.30
2018-12-31T14:19:38.008Z,1.37
2018-12-31T14:22:08.833Z,1.50
2018-12-31T14:24:40.179Z,1.20
2018-12-31T14:27:10.667Z,1.50
2018-12-31T14:29:41.218Z,1.33
2018-12-31T14:32:11.732Z,1.50
2018-12-31T14:34:42.333Z,1.10
2018-12-31T14:37:12.886Z,1.60
2018-12-31T14:39:43.352Z,1.47
2018-12-31T14:42:16.412Z,1.63
2018-12-31T14:44:46.225Z,1.40
2018-12-31T14:47:18.440Z,1.47
2018-12-31T14:49:49.155Z,1.60
2018-12-31T14:52:19.641Z,13.90
2018-12-31T14:54:50.482Z,15.47
2018-12-31T14:57:21.083Z,2.10
2018-12-31T14:59:51.664Z,1.53
2018-12-31T15:02:22.192Z,1.50
2018-12-31T15:04:52.681Z,1.60
2018-12-31T15:07:23.220Z,2.80
2018-12-31T15:09:53.800Z,39.30
2018-12-31T15:12:24.381Z,21.77
2018-12-31T15:14:54.987Z,3.30
2018-12-31T15:17:25.799Z,2.00
2018-12-31T15:19:56.273Z,39.07
2018-12-31T15:22:29.165Z,13.50
2018-12-31T15:24:59.166Z,34.27
2018-12-31T15:27:29.646Z,4.20
2018-12-31T15:30:00.267Z,3.17
2018-12-31T15:32:30.850Z,2.17
2018-12-31T15:35:01.437Z,2.97
2018-12-31T15:37:31.952Z,2.40
2018-12-31T15:40:02.519Z,2.40
2018-12-31T15:42:33.073Z,2.13
2018-12-31T15:45:03.591Z,2.20
2018-12-31T15:47:34.123Z,2.63
2018-12-31T15:50:07.945Z,2.90
2018-12-31T15:52:39.491Z,3.43
2018-12-31T15:55:10.102Z,3.33
2018-12-31T15:57:40.653Z,3.73
2018-12-31T16:00:12.194Z,5.20
2018-12-31T16:02:42.686Z,4.30
2018-12-31T16:05:13.262Z,3.63
2018-12-31T16:07:45.955Z,4.00
2018-12-31T16:10:16.060Z,4.73
2018-12-31T16:12:47.329Z,3.70
2018-12-31T16:15:17.866Z,3.20
2018-12-31T16:17:48.446Z,3.80
2018-12-31T16:20:19.073Z,3.90
2018-12-31T16:22:51.918Z,4.23
2018-12-31T16:25:23.131Z,4.73
2018-12-31T16:27:53.682Z,4.23
2018-12-31T16:30:24.276Z,3.13
2018-12-31T16:32:57.720Z,3.03
2018-12-31T16:35:28.347Z,3.40
2018-12-31T16:37:58.986Z,2.20
2018-12-31T16:40:29.585Z,3.80
2018-12-31T16:43:00.199Z,3.50
2018-12-31T16:45:31.445Z,5.33
2018-12-31T16:48:02.212Z,6.30
2018-12-31T16:50:32.824Z,5.70
2018-12-31T16:53:03.460Z,3.60
2018-12-31T16:55:34.212Z,4.73
2018-12-31T16:58:04.863Z,6.03
2018-12-31T17:00:35.403Z,6.20
2018-12-31T17:03:06.638Z,4.23
2018-12-31T17:05:37.280Z,3.80
2018-12-31T17:08:08.427Z,4.60
2018-12-31T17:10:39.077Z,4.50
2018-12-31T17:13:09.709Z,4.70
2018-12-31T17:15:40.389Z,6.60
2018-12-31T17:18:11.054Z,7.10
2018-12-31T17:20:42.156Z,5.97
2018-12-31T17:23:12.725Z,8.97
2018-12-31T17:25:43.356Z,9.20
2018-12-31T17:28:14.215Z,6.97
2018-12-31T17:30:44.968Z,4.93
2018-12-31T17:33:15.593Z,5.70
2018-12-31T17:35:48.300Z,7.07
2018-12-31T17:38:18.881Z,7.57
2018-12-31T17:40:49.525Z,10.70
2018-12-31T17:43:20.103Z,7.43
2018-12-31T17:45:50.672Z,7.10
2018-12-31T17:48:21.200Z,6.00
2018-12-31T17:50:51.798Z,6.00
2018-12-31T17:53:22.910Z,6.40
2018-12-31T17:55:53.445Z,7.20
2018-12-31T17:58:23.937Z,5.60
2018-12-31T18:00:54.442Z,6.27
2018-12-31T18:03:26.675Z,5.87
2018-12-31T18:05:57.278Z,6.47
2018-12-31T18:08:27.798Z,6.93
2018-12-31T18:10:58.314Z,6.50
2018-12-31T18:13:28.919Z,8.20
2018-12-31T18:15:59.432Z,7.20
2018-12-31T18:18:29.985Z,9.90
2018-12-31T18:21:00.577Z,8.50
2018-12-31T18:23:31.110Z,8.27
2018-12-31T18:26:01.651Z,9.70
2018-12-31T18:28:32.209Z,12.33
2018-12-31T18:31:02.720Z,7.97
2018-12-31T18:33:33.341Z,10.63
2018-12-31T18:36:03.876Z,10.20
2018-12-31T18:38:34.736Z,7.60
2018-12-31T18:41:05.353Z,8.83
2018-12-31T18:43:35.894Z,10.10
2018-12-31T18:46:06.471Z,10.10
2018-12-31T18:48:37.171Z,8.67
2018-12-31T18:51:07.730Z,9.00
2018-12-31T18:53:39.664Z,9.63
2018-12-31T18:56:10.356Z,9.97
2018-12-31T18:58:43.040Z,9.50
2018-12-31T19:01:13.916Z,8.70
2018-12-31T19:03:44.759Z,10.13
2018-12-31T19:06:15.281Z,10.07
2018-12-31T19:08:45.768Z,10.10
2018-12-31T19:11:17.040Z,9.00
2018-12-31T19:13:47.673Z,8.70
2018-12-31T19:16:18.250Z,9.53
2018-12-31T19:18:50.913Z,8.90
2018-12-31T19:21:21.506Z,8.40
2018-12-31T19:23:52.674Z,10.40
2018-12-31T19:26:23.204Z,8.30
2018-12-31T19:28:53.763Z,10.87
2018-12-31T19:31:24.277Z,8.70
2018-12-31T19:33:54.787Z,9.47
2018-12-31T19:36:25.352Z,10.40
2018-12-31T19:38:55.908Z,10.67
2018-12-31T19:41:26.396Z,8.93
2018-12-31T19:43:57.003Z,9.83
2018-12-31T19:46:27.680Z,8.83
2018-12-31T19:49:00.271Z,10.10
2018-12-31T19:51:30.817Z,7.50
2018-12-31T19:54:01.329Z,8.93
2018-12-31T19:56:31.938Z,7.50
2018-12-31T19:59:04.658Z,8.77
2018-12-31T20:01:35.104Z,8.00
2018-12-31T20:04:05.701Z,8.43
2018-12-31T20:06:36.298Z,8.63
2018-12-31T20:09:09.226Z,9.40
2018-12-31T20:11:39.746Z,9.67
2018-12-31T20:14:10.316Z,10.43
2018-12-31T20:16:40.864Z,11.30
2018-12-31T20:19:12.185Z,10.90
2018-12-31T20:21:42.770Z,13.30
2018-12-31T20:24:13.320Z,10.50
2018-12-31T20:26:43.871Z,9.17
2018-12-31T20:29:16.591Z,12.43
2018-12-31T20:31:47.167Z,12.63
2018-12-31T20:34:17.711Z,13.67
2018-12-31T20:36:48.893Z,12.07
2018-12-31T20:39:20.126Z,11.40
2018-12-31T20:41:50.623Z,10.93
2018-12-31T20:44:21.384Z,11.60
2018-12-31T20:46:55.522Z,11.97
2018-12-31T20:49:25.656Z,12.67
2018-12-31T20:51:56.240Z,9.93
2018-12-31T20:54:26.787Z,12.57
2018-12-31T20:56:58.532Z,10.53
2018-12-31T20:59:29.039Z,11.17
2018-12-31T21:01:59.603Z,12.70
2018-12-31T21:04:30.177Z,10.50
2018-12-31T21:07:00.682Z,10.70
2018-12-31T21:09:31.201Z,13.40
2018-12-31T21:12:01.748Z,14.40
2018-12-31T21:14:32.711Z,12.10
2018-12-31T21:17:03.343Z,11.13
2018-12-31T21:19:35.137Z,10.10
2018-12-31T21:22:06.312Z,10.13
2018-12-31T21:24:36.829Z,10.20
2018-12-31T21:27:07.381Z,11.53
2018-12-31T21:29:37.944Z,12.63
2018-12-31T21:32:08.503Z,11.70
2018-12-31T21:34:39.091Z,10.47
2018-12-31T21:37:10.227Z,9.63
2018-12-31T21:39:40.812Z,10.73
2018-12-31T21:42:11.395Z,10.50
2018-12-31T21:44:41.906Z,13.00
2018-12-31T21:47:12.458Z,13.30
2018-12-31T21:49:44.469Z,10.40
2018-12-31T21:52:15.025Z,13.10
2018-12-31T21:54:45.841Z,11.43
2018-12-31T21:57:18.153Z,12.90
2018-12-31T21:59:48.774Z,15.07
2018-12-31T22:02:19.308Z,13.00
2018-12-31T22:04:49.907Z,15.60
2018-12-31T22:07:20.508Z,17.80
2018-12-31T22:09:51.053Z,13.37
2018-12-31T22:12:21.588Z,11.80
2018-12-31T22:14:52.124Z,12.90
2018-12-31T22:17:23.057Z,13.77
2018-12-31T22:19:53.570Z,14.00
2018-12-31T22:22:24.099Z,14.00
2018-12-31T22:24:54.632Z,11.73
2018-12-31T22:27:25.184Z,13.40
2018-12-31T22:29:55.735Z,13.97
2018-12-31T22:32:26.239Z,12.93
2018-12-31T22:34:56.779Z,13.27
2018-12-31T22:37:27.250Z,12.37
2018-12-31T22:39:57.716Z,12.50
2018-12-31T22:42:28.271Z,13.10
2018-12-31T22:44:58.757Z,11.50
2018-12-31T22:47:29.423Z,11.63
2018-12-31T22:50:01.140Z,12.60
2018-12-31T22:52:31.975Z,11.93
2018-12-31T22:55:02.538Z,12.17
2018-12-31T22:57:33.476Z,11.13
2018-12-31T23:00:04.792Z,39.90
2018-12-31T23:02:35.939Z,11.63
2018-12-31T23:05:10.245Z,10.80
2018-12-31T23:07:41.731Z,11.30
2018-12-31T23:10:12.368Z,10.70
2018-12-31T23:12:44.397Z,10.97
2018-12-31T23:15:20.749Z,11.23
2018-12-31T23:17:51.705Z,11.90
2018-12-31T23:20:25.501Z,12.63
2018-12-31T23:22:58.331Z,12.87
2018-12-31T23:25:28.854Z,12.67
2018-12-31T23:27:59.410Z,14.20
2018-12-31T23:30:33.055Z,13.77
2018-12-31T23:33:03.616Z,16.10
2018-12-31T23:35:34.137Z,38.70
2018-12-31T23:38:04.721Z,47.07
2018-12-31T23:40:36.106Z,77.50
2018-12-31T23:43:06.864Z,97.47
2018-12-31T23:45:37.776Z,115.33
2018-12-31T23:48:08.345Z,134.13
2018-12-31T23:50:38.879Z,174.73
2018-12-31T23:53:09.447Z,173.83
2018-12-31T23:55:39.987Z,147.03
2018-12-31T23:58:10.533Z,180.17
